Seligman, AZ

08:57 AM MST del 25 Luglio 2014 (GMT -0700)
Williams (KCMR) Alt. 6680 ft | 35.31 °N, 112.19 °W | Change Station

Current weather conditions updated 2 minutes ago

Clear
Sereno
77 °F
Sembra 77 °F
N
7
Vento Variabile Vento da SO

Oggi si prevede un notevole aumento della temperatura rispetto a ieri. Temporali in intensificazione nel pomeriggio..

Oggi
Massima -- | Minima -- °F
--% Possibilità di precip.
Ieri
Massima -- | Minima -- °F
Precip. -- in
5:35 AM 7:40 PM
Luna calante, 2% visible
Pressione 30.40 in
Visibilità 10.0 miglia
Nuvole Sereno
Punto di rugiada 50 °F
Umidità 39%
Piovosità 0.00 in
Spessore del manto nevoso Non disponibile.
Raggi UV 6 fuori da 12
Polline 4.60 fuori da 12
Qualità dell'aria Non disponibile.
Flu Activity Non disponibile.
METAR KCMR 251555Z AUTO 22006KT 10SM CLR 25/10 A3040 RMK AO1

More Conditions Fewer Conditions

Pressione 30.40 in
Visibilità 10.0 miglia
Nuvole Sereno
Punto di rugiada 50 °F
Umidità 39%
Piovosità 0.00 in
Spessore del manto nevoso Non disponibile.
Raggi UV 6 fuori da 12
Polline 4.60 fuori da 12
Qualità dell'aria Non disponibile.
Flu Activity Non disponibile.
METAR KCMR 251555Z AUTO 22006KT 10SM CLR 25/10 A3040 RMK AO1

More Conditions Fewer Conditions

10-Day Weather Forecast

Almanac

Astronomia

Jul. 25, 2014 Alba Tramonto
Ora attuale 05:35 MST 19:40 MST
Crepuscolo civile 05:06 MST 20:08 MST
Crepuscolo nautico 04:31 MST 20:43 MST
Crepuscolo astronomico 03:54 MST 21:20 MST
Luna 04:36 MST 18:42 MST
Estensione della luce visibile 15h 02m
Lunghezza del giorno
14h 05m
Tomorrow will be 1m 29s shorter.
Luna calante, 2% of the Moon is Illuminated
Oggi
Luna calante
Lug 26
Nuovo
Ago 3
Primo quarto
Ago 10
Luna piena
Ago 17
Ultimo quarto

Gli estremi di oggi

State Highs State Lows

Community

WunderPhotos

Upload Photos

1,737,355 foto caricate!

Nearby

Profondità neve

Stazione Profondità Altitudine
White Horse Lake 0 in 7180 ft
Snowslide Canyon 0 in 9730 ft
Happy Jack 0 in 7630 ft
Workman Creek 1 in 6900 ft
Maverick Fork 0 in 9200 ft

Attività sismica

Città  Distanza Mag. Data & Ora
Non sono state riportate attività sismiche nelle vicinanze.
Minimo Magnitudo Mostrato è 2.5.

Temperature delle acque costiere

Località Temperatura
Nessun dato dalle stazioni

Stazioni meteo nelle vicinanze

Ubicazione della stazione Temp. Indice di calore Punto di rugiada Umidità Vento Precip. Alt. Aggiornato Tipo
MesoWest AUDLEY GRADE , Seligman, AZ 69 °F - 61 °F 77% Nord  a  - 0.00 in / hr 5450 ft 8:21 AM MST MADIS
Sierra Verda Ranch Unit 32, Seligman, AZ 77.0 °F 79 °F 56 °F 48% SSO  a  1.0 mph 0.00 in / hr 5460 ft 8:57 AM MST Sequenza Rapida
3 mi. due north of Ash Fork AZ, Ash Fork, AZ 76.8 °F 79 °F 59 °F 54% SE  a  0.0 mph 0.00 in / hr 5395 ft 8:55 AM MST Normale

Show More Stations Show Fewer Stations